Decoded Metar for UKDR (KRIVYY RIH in UKRAINE) (IATA:N/A) | Meteo·Mobile Aviation Weather
aviador You're here:

UKDR Decoded Metar

KRIVYY RIH in UKRAINE
Report Time2019-03-23 08:00:00
UTC Time2019-03-23 08:16:21
Flight Rules vfr VFR
Wind350° at 21 kt
W.Decomp.*RWY 36: 20.4 kt HW 5.1 kt LCW
W.Rank350° ranks 5
Current wind is above 350° avg. (8.8)
Visibility9999 m
Phenomena:N/A
Clouds:Broken 040 Hf
Expected CloudBase > 4,000 ft AGL from Temp-Dew spread
Ceiling4,000 ft
Temp05°C (ISA -9)
Dew Point-5°C (49% RH)
AAT-5.2°C
QNH1018 hPa
Density Alt-810 ft
Elevation407 ft
Report Wrong Elevation
Raw Report
UKDR 230800Z 35011MPS 320V020 9999 BKN040 05/M05 Q1018 R36/09//70
TEMPO 34011G17MPS=

Extra information for UKDR:More info

Metar Taf Metar & Taf Last 4 Metars F.Rules Stats Wind Profile Meteogram Temp Stats Airport Information Weather charts Add Link Nearby VenuesMetar ALERT Operation Metar Decoded Social comments